Mico, Texas
Current Conditions -  °F | °C
As of 10:15 AM on Sunday 23 Nov 2014 (Local Time) from KCVB Reporting Station
Clear Clear  
Wind Chill: 69°   Ceiling: Unl
Heat Index: 69°   Visibility: 7mi
Dew Point: 51°   Wind: 7mph
Humidity: 53%   Direction: 260°W
Pressure: 29.73"   Gusts: NA
Location:  29.54°N, 98.92°W
Report Text: KCVB 231615Z AUTO 26006KT 7SM CLR 20/11 A2973 RMK AO2 T02040105
Loading
Personal Weather Stations






























Interactive Weather Map New forecast layout! Learn more

10-Day Weather Forecast

Advertisements
Track Severe Weather on mobile